createdAt,value
2019-04-01T00:00:18.622Z,61.71
2019-04-01T00:02:50.099Z,62.01
2019-04-01T00:05:21.433Z,62.32
2019-04-01T00:07:52.763Z,62.32
2019-04-01T00:10:24.097Z,62.63
2019-04-01T00:12:55.412Z,63.72
2019-04-01T00:15:26.810Z,63.86
2019-04-01T00:17:58.278Z,63.86
2019-04-01T00:20:29.639Z,64.44
2019-04-01T00:23:01.116Z,64.10
2019-04-01T00:25:32.505Z,64.23
2019-04-01T00:28:03.834Z,64.65
2019-04-01T00:30:35.146Z,65.27
2019-04-01T00:33:07.524Z,65.27
2019-04-01T00:35:38.833Z,65.46
2019-04-01T00:38:16.156Z,66.09
2019-04-01T00:40:47.463Z,66.74
2019-04-01T00:43:29.741Z,66.74
2019-04-01T00:46:01.066Z,67.11
2019-04-01T00:48:32.393Z,67.52
2019-04-01T00:51:03.715Z,67.52
2019-04-01T00:53:34.938Z,67.35
2019-04-01T00:56:07.264Z,67.72
2019-04-01T00:58:38.628Z,67.71
2019-04-01T01:01:11.200Z,68.08
2019-04-01T01:03:42.507Z,69.10
2019-04-01T01:06:13.808Z,69.10
2019-04-01T01:08:45.213Z,69.05
2019-04-01T01:11:16.469Z,70.29
2019-04-01T01:13:48.779Z,70.29
2019-04-01T01:16:19.992Z,69.77
2019-04-01T01:18:51.305Z,70.41
2019-04-01T01:21:22.621Z,70.13
2019-04-01T01:23:53.947Z,70.20
2019-04-01T01:26:25.304Z,70.44
2019-04-01T01:28:56.612Z,70.48
2019-04-01T01:31:27.885Z,70.53
2019-04-01T01:33:59.102Z,70.56
2019-04-01T01:36:30.507Z,70.56
2019-04-01T01:39:01.703Z,70.69
2019-04-01T01:41:34.345Z,70.77
2019-04-01T01:44:05.683Z,70.73
2019-04-01T01:46:36.941Z,70.81
2019-04-01T01:49:08.263Z,70.81
2019-04-01T01:51:39.563Z,70.88
2019-04-01T01:54:10.804Z,71.06
2019-04-01T01:56:43.641Z,71.28
2019-04-01T01:59:18.189Z,70.94
2019-04-01T02:01:49.532Z,71.22
2019-04-01T02:04:23.990Z,71.84
2019-04-01T02:06:56.376Z,71.80
2019-04-01T02:09:27.680Z,72.00
2019-04-01T02:11:58.918Z,71.78
2019-04-01T02:14:31.084Z,71.53
2019-04-01T02:17:04.001Z,71.55
2019-04-01T02:19:35.354Z,72.15
2019-04-01T02:22:06.798Z,72.58
2019-04-01T02:24:38.473Z,72.47
2019-04-01T02:27:10.062Z,72.83
2019-04-01T02:29:41.602Z,72.79
2019-04-01T02:32:14.547Z,73.30
2019-04-01T02:34:45.884Z,73.08
2019-04-01T02:37:17.236Z,73.08
2019-04-01T02:39:51.662Z,73.42
2019-04-01T02:42:26.549Z,73.70
2019-04-01T02:44:57.899Z,73.90
2019-04-01T02:47:29.277Z,74.34
2019-04-01T02:50:02.680Z,74.70
2019-04-01T02:52:33.883Z,74.79
2019-04-01T02:55:07.442Z,74.89
2019-04-01T02:57:38.877Z,74.68
2019-04-01T03:00:10.204Z,75.30
2019-04-01T03:02:41.426Z,76.35
2019-04-01T03:05:12.703Z,76.16
2019-04-01T03:07:44.042Z,75.92
2019-04-01T03:10:15.372Z,76.22
2019-04-01T03:12:46.559Z,75.94
2019-04-01T03:15:17.808Z,76.10
2019-04-01T03:17:49.170Z,76.14
2019-04-01T03:20:20.321Z,75.95
2019-04-01T03:22:51.694Z,76.12
2019-04-01T03:25:22.918Z,75.73
2019-04-01T03:27:55.109Z,75.65
2019-04-01T03:30:26.286Z,75.70
2019-04-01T03:32:57.651Z,75.26
2019-04-01T03:35:28.822Z,75.46
2019-04-01T03:38:00.135Z,74.46
2019-04-01T03:40:31.334Z,74.36
2019-04-01T03:43:02.627Z,75.06
2019-04-01T03:45:33.922Z,74.84
2019-04-01T03:48:05.294Z,73.90
2019-04-01T03:50:36.654Z,74.10
2019-04-01T03:53:08.019Z,73.90
2019-04-01T03:55:39.369Z,73.41
2019-04-01T03:58:10.662Z,72.30
2019-04-01T04:00:42.128Z,71.62
2019-04-01T04:03:13.463Z,69.67
2019-04-01T04:05:44.824Z,69.24
2019-04-01T04:08:16.162Z,68.57
2019-04-01T04:10:47.493Z,67.06
2019-04-01T04:13:18.807Z,66.51
2019-04-01T04:15:50.161Z,66.53
2019-04-01T04:18:21.498Z,66.46
2019-04-01T04:20:52.875Z,64.08
2019-04-01T04:23:25.196Z,61.28
2019-04-01T04:25:56.484Z,59.91
2019-04-01T04:28:27.887Z,59.20
2019-04-01T04:31:00.288Z,59.11
2019-04-01T04:33:31.652Z,58.79
2019-04-01T04:36:02.968Z,58.53
2019-04-01T04:38:34.193Z,56.80
2019-04-01T04:41:05.520Z,54.61
2019-04-01T04:43:36.855Z,54.87
2019-04-01T04:46:08.205Z,53.76
2019-04-01T04:48:40.576Z,52.86
2019-04-01T04:51:11.928Z,52.08
2019-04-01T04:53:44.324Z,51.24
2019-04-01T04:56:15.675Z,50.07
2019-04-01T04:58:47.112Z,50.16
2019-04-01T05:01:18.640Z,49.47
2019-04-01T05:03:49.825Z,47.49
2019-04-01T05:06:21.135Z,48.24
2019-04-01T05:08:52.477Z,48.39
2019-04-01T05:11:23.825Z,48.06
2019-04-01T05:13:55.149Z,47.73
2019-04-01T05:16:26.460Z,45.31
2019-04-01T05:18:58.825Z,45.97
2019-04-01T05:21:30.260Z,46.10
2019-04-01T05:24:01.812Z,44.11
2019-04-01T05:26:33.596Z,44.48
2019-04-01T05:29:04.938Z,43.85
2019-04-01T05:31:36.218Z,44.19
2019-04-01T05:34:07.536Z,43.83
2019-04-01T05:36:38.933Z,43.98
2019-04-01T05:39:10.379Z,43.53
2019-04-01T05:41:41.799Z,43.84
2019-04-01T05:44:13.356Z,41.94
2019-04-01T05:46:44.711Z,40.78
2019-04-01T05:49:16.602Z,39.89
2019-04-01T05:51:47.971Z,38.86
2019-04-01T05:54:19.299Z,39.11
2019-04-01T05:56:50.592Z,38.99
2019-04-01T05:59:21.856Z,38.25
2019-04-01T06:01:53.155Z,38.43
2019-04-01T06:04:24.478Z,38.51
2019-04-01T06:06:56.517Z,38.80
2019-04-01T06:09:27.894Z,37.79
2019-04-01T06:11:59.211Z,37.34
2019-04-01T06:14:30.599Z,36.64
2019-04-01T06:17:01.987Z,35.93
2019-04-01T06:19:34.304Z,36.17
2019-04-01T06:22:05.678Z,35.40
2019-04-01T06:24:39.003Z,35.75
2019-04-01T06:27:10.786Z,35.99
2019-04-01T06:29:42.384Z,34.70
2019-04-01T06:32:13.751Z,34.49
2019-04-01T06:34:52.677Z,35.07
2019-04-01T06:37:18.249Z,34.94
2019-04-01T06:39:49.737Z,35.04
2019-04-01T06:42:21.122Z,34.65
2019-04-01T06:44:52.563Z,34.86
2019-04-01T06:47:23.904Z,33.60
2019-04-01T06:49:55.236Z,33.40
2019-04-01T06:52:26.730Z,33.71
2019-04-01T06:54:58.055Z,32.71
2019-04-01T06:57:30.947Z,32.87
2019-04-01T07:00:03.892Z,32.55
2019-04-01T07:02:35.298Z,32.37
2019-04-01T07:05:07.765Z,32.41
2019-04-01T07:07:39.316Z,31.66
2019-04-01T07:10:10.905Z,31.33
2019-04-01T07:12:42.245Z,31.67
2019-04-01T07:15:13.572Z,30.73
2019-04-01T07:17:46.100Z,29.82
2019-04-01T07:20:20.226Z,30.40
2019-04-01T07:22:51.506Z,31.81
2019-04-01T07:25:22.852Z,31.00
2019-04-01T07:27:54.209Z,30.31
2019-04-01T07:30:25.598Z,29.68
2019-04-01T07:32:56.999Z,28.58
2019-04-01T07:35:30.324Z,29.49
2019-04-01T07:38:01.707Z,28.94
2019-04-01T07:40:33.074Z,28.58
2019-04-01T07:43:05.297Z,29.09
2019-04-01T07:45:40.353Z,27.85
2019-04-01T07:48:14.976Z,28.25
2019-04-01T07:51:02.709Z,28.44
2019-04-01T07:53:33.935Z,27.11
2019-04-01T07:56:05.327Z,27.56
2019-04-01T07:58:37.742Z,29.02
2019-04-01T08:01:09.125Z,31.70
2019-04-01T08:03:42.083Z,31.62
2019-04-01T08:06:13.671Z,32.17
2019-04-01T08:08:46.394Z,32.73
2019-04-01T08:11:18.048Z,33.32
2019-04-01T08:13:51.395Z,33.82
2019-04-01T08:16:22.790Z,35.15
2019-04-01T08:18:58.987Z,36.71
2019-04-01T08:21:31.116Z,36.78
2019-04-01T08:24:07.557Z,36.12
2019-04-01T08:26:39.066Z,36.29
2019-04-01T08:29:29.500Z,36.38
2019-04-01T08:31:49.772Z,36.24
2019-04-01T08:34:21.194Z,36.91
2019-04-01T08:36:52.523Z,37.16
2019-04-01T08:39:23.887Z,36.97
2019-04-01T08:41:55.491Z,36.98
2019-04-01T08:44:27.254Z,36.77
2019-04-01T08:46:58.650Z,36.97
2019-04-01T08:49:30.283Z,36.84
2019-04-01T08:52:01.655Z,36.97
2019-04-01T08:54:33.052Z,36.81
2019-04-01T08:57:21.090Z,37.15
2019-04-01T08:59:56.105Z,37.16
2019-04-01T09:02:26.996Z,36.54
2019-04-01T09:04:58.727Z,36.84
2019-04-01T09:07:34.758Z,36.73
2019-04-01T09:10:06.760Z,37.02
2019-04-01T09:12:38.126Z,36.56
2019-04-01T09:15:09.472Z,36.58
2019-04-01T09:17:40.908Z,37.07
2019-04-01T09:20:12.365Z,37.20
2019-04-01T09:22:43.773Z,36.95
2019-04-01T09:25:16.126Z,37.26
2019-04-01T09:27:48.680Z,36.97
2019-04-01T09:30:20.010Z,37.49
2019-04-01T09:32:52.600Z,37.31
2019-04-01T09:35:24.270Z,37.08
2019-04-01T09:37:55.643Z,37.27
2019-04-01T09:40:27.120Z,36.42
2019-04-01T09:43:04.193Z,36.34
2019-04-01T09:45:36.652Z,36.25
2019-04-01T09:48:08.005Z,36.05
2019-04-01T09:50:39.344Z,36.25
2019-04-01T09:53:10.731Z,35.86
2019-04-01T09:55:42.159Z,35.60
2019-04-01T09:58:14.722Z,35.00
2019-04-01T10:00:53.177Z,35.15
2019-04-01T10:03:24.841Z,34.67
2019-04-01T10:05:56.730Z,34.81
2019-04-01T10:08:42.451Z,34.69
2019-04-01T10:11:18.690Z,33.54
2019-04-01T10:13:52.546Z,32.98
2019-04-01T10:16:26.621Z,33.19
2019-04-01T10:18:58.235Z,33.09
2019-04-01T10:21:31.701Z,32.77
2019-04-01T10:24:03.500Z,32.53
2019-04-01T10:26:34.920Z,32.58
2019-04-01T10:29:06.385Z,32.67
2019-04-01T10:31:37.796Z,32.60
2019-04-01T10:34:09.254Z,32.68
2019-04-01T10:36:40.903Z,32.58
2019-04-01T10:39:12.815Z,32.47
2019-04-01T10:41:44.179Z,32.67
2019-04-01T10:44:15.630Z,32.72
2019-04-01T10:46:49.768Z,32.72
2019-04-01T10:49:21.175Z,32.97
2019-04-01T10:51:54.814Z,32.48
2019-04-01T10:54:26.246Z,32.79
2019-04-01T10:56:58.964Z,32.97
2019-04-01T10:59:30.603Z,32.24
2019-04-01T11:02:02.105Z,32.17
2019-04-01T11:04:38.228Z,31.90
2019-04-01T11:07:12.804Z,32.25
2019-04-01T11:09:45.366Z,32.28
2019-04-01T11:12:16.825Z,32.25
2019-04-01T11:14:48.272Z,32.05
2019-04-01T11:17:19.980Z,31.45
2019-04-01T11:19:51.626Z,30.84
2019-04-01T11:22:26.055Z,30.64
2019-04-01T11:24:58.720Z,30.71
2019-04-01T11:27:33.766Z,30.49
2019-04-01T11:30:07.801Z,30.36
2019-04-01T11:32:41.659Z,30.32
2019-04-01T11:35:13.367Z,30.02
2019-04-01T11:37:46.040Z,30.85
2019-04-01T11:40:18.224Z,30.05
2019-04-01T11:42:49.811Z,30.54
2019-04-01T11:45:22.497Z,30.18
2019-04-01T11:47:54.182Z,30.69
2019-04-01T11:50:25.704Z,30.69
2019-04-01T11:52:57.143Z,30.47
2019-04-01T11:55:28.590Z,30.50
2019-04-01T11:57:59.997Z,30.84
2019-04-01T12:00:31.418Z,31.02
2019-04-01T12:03:03.010Z,30.93
2019-04-01T12:05:36.405Z,30.89
2019-04-01T12:08:08.278Z,30.49
2019-04-01T12:10:40.215Z,30.81
2019-04-01T12:13:12.747Z,31.14
2019-04-01T12:15:44.785Z,31.61
2019-04-01T12:18:19.448Z,31.32
2019-04-01T12:20:51.860Z,31.32
2019-04-01T12:23:25.309Z,31.38
2019-04-01T12:25:56.736Z,31.45
2019-04-01T12:28:29.132Z,31.50
2019-04-01T12:31:00.576Z,31.53
2019-04-01T12:33:32.934Z,31.47
2019-04-01T12:36:05.602Z,31.87
2019-04-01T12:38:38.511Z,31.66
2019-04-01T12:41:10.279Z,31.32
2019-04-01T12:43:41.869Z,31.35
2019-04-01T12:46:13.420Z,31.42
2019-04-01T12:48:44.878Z,31.51
2019-04-01T12:51:16.218Z,31.36
2019-04-01T12:53:47.572Z,31.38
2019-04-01T12:56:19.001Z,31.69
2019-04-01T12:58:50.325Z,31.95
2019-04-01T13:01:21.706Z,31.76
2019-04-01T13:03:53.047Z,31.32
2019-04-01T13:06:24.441Z,31.69
2019-04-01T13:08:56.767Z,32.00
2019-04-01T13:11:30.384Z,32.04
2019-04-01T13:14:01.825Z,31.77
2019-04-01T13:16:35.544Z,32.12
2019-04-01T13:19:07.070Z,32.18
2019-04-01T13:21:39.955Z,32.47
2019-04-01T13:24:11.365Z,32.60
2019-04-01T13:26:42.793Z,32.90
2019-04-01T13:29:14.275Z,32.05
2019-04-01T13:31:45.778Z,32.18
2019-04-01T13:34:20.014Z,33.10
2019-04-01T13:36:50.360Z,33.54
2019-04-01T13:39:21.798Z,33.21
2019-04-01T13:41:56.086Z,33.27
2019-04-01T13:44:36.690Z,33.52
2019-04-01T13:47:08.369Z,32.83
2019-04-01T13:49:39.691Z,33.03
2019-04-01T13:52:11.036Z,33.05
2019-04-01T13:54:42.410Z,34.22
2019-04-01T13:57:14.790Z,34.17
2019-04-01T13:59:49.509Z,34.12
2019-04-01T14:02:20.932Z,33.55
2019-04-01T14:04:53.341Z,33.96
2019-04-01T14:07:24.851Z,33.65
2019-04-01T14:09:56.259Z,33.81
2019-04-01T14:12:28.927Z,33.92
2019-04-01T14:15:01.997Z,34.32
2019-04-01T14:17:33.776Z,34.47
2019-04-01T14:20:05.438Z,35.06
2019-04-01T14:22:36.853Z,35.38
2019-04-01T14:25:08.260Z,35.83
2019-04-01T14:27:39.763Z,35.71
2019-04-01T14:30:12.811Z,35.22
2019-04-01T14:32:44.307Z,35.71
2019-04-01T14:35:16.726Z,35.78
2019-04-01T14:37:51.367Z,36.16
2019-04-01T14:40:23.841Z,36.41
2019-04-01T14:42:57.433Z,36.55
2019-04-01T14:45:29.003Z,36.41
2019-04-01T14:48:01.894Z,37.08
2019-04-01T14:50:36.326Z,37.01
2019-04-01T14:53:07.850Z,37.02
2019-04-01T14:55:39.720Z,37.44
2019-04-01T14:58:11.288Z,37.57
2019-04-01T15:00:45.199Z,37.37
2019-04-01T15:03:16.713Z,37.81
2019-04-01T15:05:49.127Z,37.99
2019-04-01T15:08:24.400Z,37.89
2019-04-01T15:10:57.464Z,37.81
2019-04-01T15:13:28.861Z,38.17
2019-04-01T15:16:01.290Z,38.28
2019-04-01T15:18:34.466Z,38.44
2019-04-01T15:21:05.902Z,38.65
2019-04-01T15:23:37.232Z,39.36
2019-04-01T15:26:08.585Z,39.64
2019-04-01T15:28:41.656Z,39.82
2019-04-01T15:31:13.181Z,40.09
2019-04-01T15:33:45.872Z,40.12
2019-04-01T15:36:17.615Z,40.25
2019-04-01T15:38:49.057Z,40.38
2019-04-01T15:41:20.446Z,41.06
2019-04-01T15:43:52.794Z,40.79
2019-04-01T15:46:24.142Z,41.19
2019-04-01T15:48:55.577Z,41.12
2019-04-01T15:51:26.922Z,41.02
2019-04-01T15:54:01.269Z,41.33
2019-04-01T15:56:31.702Z,41.35
2019-04-01T15:59:03.137Z,41.99
2019-04-01T16:01:41.594Z,41.37
2019-04-01T16:04:18.194Z,42.10
2019-04-01T16:06:51.696Z,41.62
2019-04-01T16:09:26.258Z,41.86
2019-04-01T16:11:59.448Z,41.53
2019-04-01T16:14:31.257Z,41.83
2019-04-01T16:17:05.214Z,42.25
2019-04-01T16:19:37.164Z,41.94
2019-04-01T16:22:08.586Z,42.15
2019-04-01T16:24:40.059Z,42.20
2019-04-01T16:27:14.841Z,41.86
2019-04-01T16:29:47.221Z,41.83
2019-04-01T16:32:20.663Z,42.07
2019-04-01T16:34:52.067Z,42.47
2019-04-01T16:37:23.473Z,42.22
2019-04-01T16:39:55.983Z,41.70
2019-04-01T16:42:27.424Z,41.84
2019-04-01T16:45:00.134Z,42.08
2019-04-01T16:47:31.505Z,41.94
2019-04-01T16:50:03.038Z,42.16
2019-04-01T16:52:35.523Z,42.01
2019-04-01T16:55:07.284Z,42.72
2019-04-01T16:57:38.611Z,42.46
2019-04-01T17:00:10.223Z,42.76
2019-04-01T17:02:41.397Z,42.49
2019-04-01T17:05:13.019Z,42.84
2019-04-01T17:07:45.699Z,43.06
2019-04-01T17:10:21.389Z,43.15
2019-04-01T17:12:55.802Z,43.10
2019-04-01T17:15:27.060Z,42.70
2019-04-01T17:17:59.131Z,43.01
2019-04-01T17:20:32.326Z,43.38
2019-04-01T17:23:03.669Z,43.19
2019-04-01T17:25:34.997Z,42.67
2019-04-01T17:28:06.451Z,42.75
2019-04-01T17:30:37.896Z,42.37
2019-04-01T17:33:09.363Z,41.75
2019-04-01T17:35:41.850Z,42.07
2019-04-01T17:38:14.011Z,41.51
2019-04-01T17:40:45.422Z,41.58
2019-04-01T17:43:16.820Z,42.07
2019-04-01T17:45:49.869Z,41.82
2019-04-01T17:48:21.246Z,41.79
2019-04-01T17:50:52.575Z,41.45
2019-04-01T17:53:23.911Z,41.05
2019-04-01T17:55:57.275Z,42.08
2019-04-01T17:58:28.635Z,41.86
2019-04-01T18:01:00.375Z,41.28
2019-04-01T18:03:31.819Z,41.68
2019-04-01T18:06:03.222Z,41.15
2019-04-01T18:08:34.612Z,40.91
2019-04-01T18:11:06.063Z,41.33
2019-04-01T18:13:38.072Z,41.25
2019-04-01T18:16:10.354Z,41.36
2019-04-01T18:18:41.687Z,40.56
2019-04-01T18:21:13.006Z,40.99
2019-04-01T18:23:44.259Z,41.32
2019-04-01T18:26:15.485Z,41.41
2019-04-01T18:28:47.008Z,41.16
2019-04-01T18:31:18.322Z,40.89
2019-04-01T18:33:56.001Z,41.04
2019-04-01T18:36:23.138Z,41.03
2019-04-01T18:38:54.656Z,40.68
2019-04-01T18:41:25.900Z,41.38
2019-04-01T18:43:57.644Z,40.31
2019-04-01T18:46:28.929Z,40.88
2019-04-01T18:49:00.272Z,40.65
2019-04-01T18:51:31.601Z,39.34
2019-04-01T18:54:02.946Z,39.90
2019-04-01T18:56:34.215Z,40.02
2019-04-01T18:59:05.504Z,39.44
2019-04-01T19:01:36.749Z,39.33
2019-04-01T19:04:08.057Z,39.00
2019-04-01T19:06:40.494Z,39.32
2019-04-01T19:09:12.296Z,38.60
2019-04-01T19:11:48.150Z,38.51
2019-04-01T19:14:19.471Z,38.93
2019-04-01T19:16:51.892Z,38.38
2019-04-01T19:19:23.187Z,37.95
2019-04-01T19:21:54.605Z,38.04
2019-04-01T19:24:25.969Z,38.14
2019-04-01T19:26:57.309Z,37.05
2019-04-01T19:29:28.616Z,37.04
2019-04-01T19:31:59.947Z,36.69
2019-04-01T19:34:31.267Z,37.40
2019-04-01T19:37:04.772Z,37.04
2019-04-01T19:39:36.974Z,36.18
2019-04-01T19:42:08.135Z,36.30
2019-04-01T19:44:39.474Z,36.97
2019-04-01T19:47:11.883Z,36.71
2019-04-01T19:49:43.204Z,36.25
2019-04-01T19:52:14.552Z,36.63
2019-04-01T19:54:45.908Z,36.35
2019-04-01T19:57:19.184Z,36.48
2019-04-01T19:59:50.521Z,36.62
2019-04-01T20:02:21.790Z,36.74
2019-04-01T20:04:53.106Z,36.80
2019-04-01T20:07:25.332Z,36.89
2019-04-01T20:09:56.629Z,36.73
2019-04-01T20:12:31.993Z,36.97
2019-04-01T20:15:03.457Z,36.93
2019-04-01T20:17:34.707Z,37.19
2019-04-01T20:20:09.166Z,37.07
2019-04-01T20:22:41.735Z,36.91
2019-04-01T20:25:12.962Z,37.27
2019-04-01T20:27:44.347Z,37.63
2019-04-01T20:30:16.111Z,37.41
2019-04-01T20:32:48.995Z,37.69
2019-04-01T20:35:23.684Z,37.79
2019-04-01T20:37:54.543Z,37.83
2019-04-01T20:40:25.877Z,37.80
2019-04-01T20:42:57.344Z,37.86
2019-04-01T20:45:29.717Z,37.54
2019-04-01T20:48:00.861Z,37.50
2019-04-01T20:50:32.160Z,37.74
2019-04-01T20:53:03.329Z,37.99
2019-04-01T20:55:47.421Z,38.41
2019-04-01T20:58:07.696Z,37.80
2019-04-01T21:00:38.999Z,38.12
2019-04-01T21:03:12.269Z,38.42
2019-04-01T21:05:43.687Z,38.83
2019-04-01T21:08:16.447Z,38.86
2019-04-01T21:10:48.205Z,38.50
2019-04-01T21:13:19.528Z,38.76
2019-04-01T21:15:50.827Z,38.78
2019-04-01T21:18:22.137Z,39.31
2019-04-01T21:20:53.730Z,39.75
2019-04-01T21:23:25.055Z,39.82
2019-04-01T21:25:56.421Z,39.06
2019-04-01T21:28:27.668Z,39.66
2019-04-01T21:30:59.511Z,39.78
2019-04-01T21:33:30.996Z,40.02
2019-04-01T21:36:02.279Z,40.40
2019-04-01T21:38:33.535Z,40.45
2019-04-01T21:41:04.921Z,40.82
2019-04-01T21:43:36.224Z,40.59
2019-04-01T21:46:07.608Z,40.75
2019-04-01T21:48:39.263Z,40.70
2019-04-01T21:51:10.956Z,40.73
2019-04-01T21:53:42.179Z,41.07
2019-04-01T21:56:13.405Z,41.33
2019-04-01T21:58:45.783Z,41.37
2019-04-01T22:01:17.317Z,42.03
2019-04-01T22:03:48.720Z,42.03
2019-04-01T22:06:20.037Z,41.39
2019-04-01T22:08:52.727Z,41.62
2019-04-01T22:11:23.972Z,41.03
2019-04-01T22:13:56.095Z,41.28
2019-04-01T22:16:27.774Z,41.45
2019-04-01T22:18:59.174Z,41.39
2019-04-01T22:21:30.398Z,42.21
2019-04-01T22:24:01.622Z,42.06
2019-04-01T22:26:32.959Z,41.75
2019-04-01T22:29:04.314Z,41.75
2019-04-01T22:31:35.524Z,42.62
2019-04-01T22:34:09.057Z,42.22
2019-04-01T22:36:40.548Z,42.65
2019-04-01T22:39:11.750Z,42.65
2019-04-01T22:41:43.972Z,42.60
2019-04-01T22:44:15.176Z,42.25
2019-04-01T22:46:47.524Z,42.25
2019-04-01T22:49:19.909Z,43.03
2019-04-01T22:51:51.097Z,43.26
2019-04-01T22:54:22.397Z,42.43
2019-04-01T22:56:53.632Z,42.92
2019-04-01T22:59:24.803Z,43.00
2019-04-01T23:01:59.363Z,43.35
2019-04-01T23:04:29.863Z,43.05
2019-04-01T23:07:01.127Z,43.43
2019-04-01T23:09:34.403Z,43.43
2019-04-01T23:12:05.611Z,42.92
2019-04-01T23:14:36.828Z,43.45
2019-04-01T23:17:08.005Z,43.39
2019-04-01T23:19:39.243Z,43.52
2019-04-01T23:22:11.826Z,44.21
2019-04-01T23:24:43.034Z,44.00
2019-04-01T23:27:14.238Z,43.71
2019-04-01T23:29:46.459Z,43.72
2019-04-01T23:32:17.671Z,43.64
2019-04-01T23:34:49.917Z,43.55
2019-04-01T23:37:21.056Z,44.10
2019-04-01T23:39:52.249Z,43.23
2019-04-01T23:42:23.446Z,43.89
2019-04-01T23:44:54.641Z,44.21
2019-04-01T23:47:25.759Z,43.93
2019-04-01T23:49:56.949Z,44.26
2019-04-01T23:52:28.143Z,44.42
2019-04-01T23:55:00.219Z,44.74
2019-04-01T23:57:31.555Z,44.11
